Time;durP1;ratioP1;P1;durP2;ratioP2;P2;SDS_P1;SDS_P2;PMS_P1;PMS_P2;Temp;Humidity;BMP_temperature;BMP_pressure;BME280_temperature;BME280_humidity;BME280_pressure;Samples;Min_cycle;Max_cycle;Signal;HPM_P1;HPM_P2
2022/08/17 00:00:32;;;;;;;0.00;0.00;;;20.50;46.80;;;;;;5101433;28;20115;-73
2022/08/17 00:03:12;;;;;;;0.03;0.03;;;20.40;47.20;;;;;;5102442;28;20032;-73
2022/08/17 00:05:46;;;;;;;0.35;0.35;;;20.50;47.20;;;;;;5093302;28;20032;-73
2022/08/17 00:08:14;;;;;;;0.10;0.10;;;20.50;47.00;;;;;;5103491;28;20035;-73
2022/08/17 00:10:43;;;;;;;0.00;0.00;;;20.50;47.00;;;;;;5113518;28;20505;-73
2022/08/17 00:13:13;;;;;;;0.00;0.00;;;20.40;47.10;;;;;;5112535;28;20193;-73
2022/08/17 00:15:39;;;;;;;0.00;0.00;;;20.40;46.80;;;;;;5111319;28;20386;-74
2022/08/17 00:18:05;;;;;;;0.00;0.00;;;20.40;46.70;;;;;;5106531;28;20027;-74
2022/08/17 00:20:32;;;;;;;0.00;0.00;;;20.40;46.40;;;;;;5110584;28;20032;-73
2022/08/17 00:23:09;;;;;;;0.00;0.00;;;20.30;46.00;;;;;;5110122;28;20038;-74
2022/08/17 00:25:35;;;;;;;0.00;0.00;;;20.30;45.80;;;;;;5111067;28;20034;-73
2022/08/17 00:28:01;;;;;;;0.00;0.00;;;20.20;45.90;;;;;;5113283;28;20531;-74
2022/08/17 00:30:28;;;;;;;0.20;0.20;;;19.90;46.20;;;;;;5104882;28;20152;-74
2022/08/17 00:32:55;;;;;;;0.00;0.00;;;19.90;46.60;;;;;;5109067;28;20035;-74
2022/08/17 00:35:22;;;;;;;0.00;0.00;;;20.10;46.00;;;;;;5109414;28;20474;-74
2022/08/17 00:37:51;;;;;;;0.00;0.00;;;20.10;45.90;;;;;;5108364;27;20517;-73
2022/08/17 00:40:19;;;;;;;0.08;0.08;;;20.20;45.00;;;;;;5108876;28;20434;-73
2022/08/17 00:42:47;;;;;;;0.00;0.00;;;20.10;45.30;;;;;;5111037;28;20110;-74
2022/08/17 00:45:16;;;;;;;0.00;0.00;;;20.20;45.10;;;;;;5109881;28;20032;-73
2022/08/17 00:47:43;;;;;;;0.00;0.00;;;20.00;45.10;;;;;;5117202;27;20055;-74
2022/08/17 00:50:11;;;;;;;0.00;0.00;;;20.10;45.10;;;;;;5114639;27;20381;-74
2022/08/17 00:52:47;;;;;;;13.07;1.00;;;20.30;44.60;;;;;;5113663;28;20519;-72
2022/08/17 00:55:13;;;;;;;0.00;0.00;;;20.40;44.20;;;;;;5109727;28;20078;-73
2022/08/17 00:57:45;;;;;;;1.92;1.75;;;20.50;43.50;;;;;;5092411;28;20028;-72
2022/08/17 01:00:33;;;;;;;0.08;0.08;;;20.60;43.40;;;;;;5094710;28;20070;-73
2022/08/17 01:03:18;;;;;;;0.10;0.10;;;20.70;43.30;;;;;;5094332;28;20034;-73
2022/08/17 01:05:47;;;;;;;0.00;0.00;;;20.90;42.20;;;;;;5088790;28;20059;-72
2022/08/17 01:08:18;;;;;;;0.00;0.00;;;20.90;41.80;;;;;;5102954;28;20118;-73
2022/08/17 01:10:52;;;;;;;0.73;0.73;;;21.10;41.60;;;;;;5093371;28;20039;-73
2022/08/17 01:13:19;;;;;;;1.25;1.25;;;21.20;40.80;;;;;;5085959;28;20076;-73
2022/08/17 01:15:58;;;;;;;0.00;0.00;;;21.30;40.40;;;;;;5092796;28;20486;-73
2022/08/17 01:18:25;;;;;;;0.00;0.00;;;21.30;41.10;;;;;;5100580;28;20066;-72
2022/08/17 01:20:54;;;;;;;0.00;0.00;;;21.10;41.00;;;;;;5116919;28;20028;-72
2022/08/17 01:23:23;;;;;;;0.10;0.10;;;21.10;41.20;;;;;;5101760;28;20050;-72
2022/08/17 01:25:53;;;;;;;0.00;0.00;;;21.10;41.20;;;;;;5084542;28;20036;-72
2022/08/17 01:28:20;;;;;;;0.00;0.00;;;21.10;41.20;;;;;;5087137;28;20024;-72
2022/08/17 01:30:47;;;;;;;0.73;0.73;;;21.10;41.40;;;;;;5090547;28;20081;-72
2022/08/17 01:33:13;;;;;;;0.00;0.00;;;21.20;41.90;;;;;;5093724;28;20043;-72
2022/08/17 01:35:40;;;;;;;0.00;0.00;;;21.00;44.40;;;;;;5089951;28;20452;-72
2022/08/17 01:38:08;;;;;;;0.00;0.00;;;20.70;43.80;;;;;;5081362;28;20375;-73
2022/08/17 01:40:44;;;;;;;0.00;0.00;;;20.70;45.20;;;;;;5079285;28;20055;-72
2022/08/17 01:43:20;;;;;;;1.30;0.47;;;21.20;44.30;;;;;;5081107;28;20469;-72
2022/08/17 01:45:49;;;;;;;0.00;0.00;;;21.90;42.70;;;;;;5093263;28;20024;-73
2022/08/17 01:48:16;;;;;;;0.00;0.00;;;22.50;41.70;;;;;;5089829;28;20032;-72
2022/08/17 01:50:44;;;;;;;0.00;0.00;;;22.40;41.60;;;;;;5083631;28;20053;-72
2022/08/17 01:53:18;;;;;;;0.00;0.00;;;22.70;40.80;;;;;;5080099;28;20036;-73
2022/08/17 01:55:56;;;;;;;0.00;0.00;;;23.10;39.50;;;;;;5083313;28;20044;-73
2022/08/17 01:58:23;;;;;;;0.00;0.00;;;23.50;39.00;;;;;;5101993;28;20478;-73
2022/08/17 02:00:51;;;;;;;0.00;0.00;;;23.00;41.70;;;;;;5106874;28;20110;-72
2022/08/17 02:03:22;;;;;;;0.00;0.00;;;22.80;39.40;;;;;;5098916;28;20039;-74
2022/08/17 02:05:49;;;;;;;0.00;0.00;;;23.40;38.70;;;;;;5099331;28;20032;-73
2022/08/17 02:08:16;;;;;;;0.00;0.00;;;23.80;37.60;;;;;;5111602;28;20509;-72
2022/08/17 02:10:43;;;;;;;0.00;0.00;;;24.30;37.30;;;;;;5102482;28;20040;-72
2022/08/17 02:13:10;;;;;;;0.00;0.00;;;23.50;37.60;;;;;;5099628;28;20113;-72
2022/08/17 02:15:36;;;;;;;0.35;0.35;;;23.70;38.30;;;;;;5097349;28;20143;-74
2022/08/17 02:18:04;;;;;;;0.00;0.00;;;24.00;37.10;;;;;;5094013;28;20032;-73
2022/08/17 02:20:30;;;;;;;0.10;0.10;;;24.50;36.80;;;;;;5104132;28;20067;-75
2022/08/17 02:22:59;;;;;;;0.00;0.00;;;25.00;36.30;;;;;;5105386;28;20032;-73
2022/08/17 02:25:27;;;;;;;0.00;0.00;;;25.90;35.60;;;;;;5104907;28;20049;-74
2022/08/17 02:27:53;;;;;;;0.00;0.00;;;26.80;33.70;;;;;;5103398;28;20119;-74
2022/08/17 02:30:19;;;;;;;0.00;0.00;;;26.80;33.30;;;;;;5105332;28;20036;-75
2022/08/17 02:32:46;;;;;;;0.00;0.00;;;27.10;33.30;;;;;;5104326;28;20028;-74
2022/08/17 02:35:12;;;;;;;1.92;1.75;;;27.60;32.50;;;;;;5105227;28;20032;-74
2022/08/17 02:37:41;;;;;;;0.00;0.00;;;28.20;31.20;;;;;;5102927;28;20530;-74
2022/08/17 02:40:08;;;;;;;0.00;0.00;;;28.60;30.70;;;;;;5099836;28;20040;-74
2022/08/17 02:42:38;;;;;;;0.00;0.00;;;29.10;30.20;;;;;;5106265;28;20107;-74
2022/08/17 02:45:10;;;;;;;0.00;0.00;;;28.70;30.20;;;;;;5105939;28;20377;-74
2022/08/17 02:47:36;;;;;;;0.13;0.13;;;28.30;31.20;;;;;;5098813;28;20060;-74
2022/08/17 02:50:04;;;;;;;0.00;0.00;;;28.20;32.00;;;;;;5102414;28;20362;-73
2022/08/17 02:52:36;;;;;;;0.10;0.10;;;27.80;31.60;;;;;;5100742;28;20034;-75
2022/08/17 02:57:48;;;;;;;0.00;0.00;;;27.60;31.00;;;;;;5064745;27;20409;-74
2022/08/17 03:00:32;;;;;;;0.00;0.00;;;27.30;32.40;;;;;;5061485;28;20071;-74
2022/08/17 03:02:59;;;;;;;0.00;0.00;;;27.40;32.90;;;;;;5059007;28;20033;-74
2022/08/17 03:05:27;;;;;;;0.00;0.00;;;27.30;33.50;;;;;;5064231;28;20131;-74
2022/08/17 03:07:54;;;;;;;0.00;0.00;;;27.70;33.30;;;;;;5064957;28;20739;-74
2022/08/17 03:10:21;;;;;;;0.00;0.00;;;28.50;31.40;;;;;;5073514;28;20044;-74
2022/08/17 03:12:48;;;;;;;0.00;0.00;;;28.10;31.80;;;;;;5073462;28;20473;-73
2022/08/17 03:15:21;;;;;;;0.00;0.00;;;28.00;32.90;;;;;;5070454;28;20028;-74
2022/08/17 03:17:47;;;;;;;1.08;1.08;;;28.10;32.60;;;;;;5066268;28;20489;-75
2022/08/17 03:20:15;;;;;;;20.17;18.63;;;27.60;33.00;;;;;;5066412;28;20036;-75
2022/08/17 03:22:48;;;;;;;0.00;0.00;;;27.30;33.50;;;;;;5062117;28;20027;-75
2022/08/17 03:25:20;;;;;;;0.00;0.00;;;26.60;33.80;;;;;;5064791;28;20027;-73
2022/08/17 03:27:46;;;;;;;0.00;0.00;;;26.20;35.20;;;;;;5062748;28;20025;-75
2022/08/17 03:30:13;;;;;;;0.00;0.00;;;26.20;34.50;;;;;;5064021;28;20032;-77
2022/08/17 03:32:42;;;;;;;0.00;0.00;;;25.90;34.20;;;;;;5064328;28;20071;-75
2022/08/17 03:35:10;;;;;;;0.00;0.00;;;25.80;34.80;;;;;;5065456;28;20067;-74
2022/08/17 03:37:36;;;;;;;0.00;0.00;;;26.20;34.10;;;;;;5066965;28;20361;-74
2022/08/17 03:40:04;;;;;;;4.80;4.65;;;26.20;33.90;;;;;;5064856;28;20535;-73
2022/08/17 03:42:30;;;;;;;0.00;0.00;;;26.30;33.50;;;;;;5064864;28;20033;-75
2022/08/17 03:44:57;;;;;;;0.00;0.00;;;25.30;33.50;;;;;;5063084;28;20035;-74
2022/08/17 03:58:24;;;;;;;0.00;0.00;;;24.40;35.90;;;;;;5062993;28;20193;-75
2022/08/17 04:00:51;;;;;;;3.97;1.73;;;25.00;34.80;;;;;;5064589;28;20024;-75
2022/08/17 04:03:18;;;;;;;2.20;1.33;;;24.80;35.10;;;;;;5067633;28;20021;-75
2022/08/17 04:05:44;;;;;;;0.00;0.00;;;25.10;34.70;;;;;;5066868;28;20039;-74
2022/08/17 04:08:10;;;;;;;0.00;0.00;;;25.20;34.90;;;;;;5059934;28;20094;-75
2022/08/17 04:10:37;;;;;;;0.00;0.00;;;25.30;34.00;;;;;;5054982;28;20025;-74
2022/08/17 04:13:04;;;;;;;0.20;0.20;;;25.00;33.70;;;;;;5051611;28;20383;-74
2022/08/17 04:15:32;;;;;;;0.00;0.00;;;25.00;34.20;;;;;;5053056;28;20038;-76
2022/08/17 04:17:58;;;;;;;0.22;0.22;;;24.80;34.20;;;;;;5051470;28;20517;-75
2022/08/17 04:20:26;;;;;;;0.00;0.00;;;24.60;33.80;;;;;;5048734;28;20543;-74
2022/08/17 04:23:16;;;;;;;0.00;0.00;;;24.70;33.90;;;;;;5045981;28;20385;-75
2022/08/17 04:25:47;;;;;;;0.00;0.00;;;25.20;33.30;;;;;;5046000;28;20017;-75
2022/08/17 04:28:15;;;;;;;0.45;0.30;;;25.30;33.00;;;;;;5048050;28;20029;-75
2022/08/17 04:30:43;;;;;;;0.00;0.00;;;25.50;34.40;;;;;;5049077;28;20454;-74
2022/08/17 04:33:15;;;;;;;4.30;3.92;;;25.30;34.90;;;;;;5048267;28;20036;-74
2022/08/17 04:35:47;;;;;;;1.48;0.95;;;25.40;35.00;;;;;;5044125;28;20027;-75
2022/08/17 04:38:20;;;;;;;0.35;0.35;;;25.60;35.00;;;;;;5051204;28;20032;-76
2022/08/17 04:43:33;;;;;;;0.00;0.00;;;25.20;35.80;;;;;;5046446;28;20439;-74
2022/08/17 04:46:03;;;;;;;1.23;0.95;;;25.20;35.60;;;;;;5052054;28;20105;-75
2022/08/17 04:48:42;;;;;;;0.00;0.00;;;25.60;35.60;;;;;;5051734;28;20025;-75
2022/08/17 04:51:34;;;;;;;0.10;0.10;;;25.10;37.00;;;;;;5048936;28;20029;-74
2022/08/17 04:54:11;;;;;;;0.20;0.20;;;25.20;37.80;;;;;;5051645;28;20454;-75
2022/08/17 04:56:38;;;;;;;0.80;0.47;;;25.30;37.00;;;;;;5053833;28;20063;-75
2022/08/17 04:59:10;;;;;;;1.58;1.50;;;25.40;36.90;;;;;;5049777;28;20029;-75
2022/08/17 05:01:38;;;;;;;1.50;1.50;;;25.40;37.10;;;;;;5050095;28;20067;-74
2022/08/17 05:04:08;;;;;;;0.28;0.28;;;25.30;36.60;;;;;;5047866;28;20014;-73
2022/08/17 05:06:34;;;;;;;0.10;0.10;;;25.30;36.70;;;;;;5050544;28;20033;-74
2022/08/17 05:09:00;;;;;;;0.00;0.00;;;25.50;36.90;;;;;;5052522;28;20112;-75
2022/08/17 05:11:28;;;;;;;0.00;0.00;;;25.70;36.50;;;;;;5052054;28;20497;-74
2022/08/17 05:13:57;;;;;;;0.00;0.00;;;26.00;36.50;;;;;;5047635;28;20036;-74
2022/08/17 05:16:25;;;;;;;0.30;0.22;;;26.30;35.70;;;;;;5047932;28;20432;-75
2022/08/17 05:18:52;;;;;;;0.00;0.00;;;26.30;35.60;;;;;;5051026;28;20028;-75
2022/08/17 05:21:20;;;;;;;2.75;2.65;;;26.30;35.30;;;;;;5048725;28;20025;-73
2022/08/17 05:23:46;;;;;;;0.00;0.00;;;26.30;35.10;;;;;;5047897;28;20481;-74
2022/08/17 05:26:16;;;;;;;0.00;0.00;;;26.70;34.60;;;;;;5048208;28;20059;-74
2022/08/17 05:28:42;;;;;;;0.00;0.00;;;26.80;34.60;;;;;;5044307;28;20078;-75
2022/08/17 05:31:09;;;;;;;0.00;0.00;;;26.90;35.30;;;;;;5051078;28;20152;-75
2022/08/17 05:33:39;;;;;;;0.32;0.32;;;27.00;34.40;;;;;;5048544;28;20428;-75
2022/08/17 05:36:08;;;;;;;0.03;0.03;;;27.00;33.40;;;;;;5047900;28;20025;-75
2022/08/17 05:38:34;;;;;;;0.00;0.00;;;26.80;32.90;;;;;;5049115;28;20050;-74
2022/08/17 05:41:06;;;;;;;0.03;0.03;;;26.10;33.30;;;;;;5051503;28;20024;-75
2022/08/17 05:43:36;;;;;;;0.00;0.00;;;26.30;34.10;;;;;;5054783;28;20043;-75
2022/08/17 05:46:29;;;;;;;2.15;1.02;;;26.40;33.50;;;;;;5050229;28;20059;-74
2022/08/17 05:49:06;;;;;;;0.00;0.00;;;26.50;34.20;;;;;;5046943;28;20025;-74
2022/08/17 05:52:11;;;;;;;0.10;0.10;;;26.40;34.10;;;;;;5047437;28;20036;-74
2022/08/17 05:54:49;;;;;;;0.00;0.00;;;26.70;32.20;;;;;;5075771;28;20435;-73
2022/08/17 05:57:28;;;;;;;0.15;0.15;;;26.60;33.20;;;;;;5041932;28;20493;-74
2022/08/17 06:00:15;;;;;;;0.00;0.00;;;26.20;33.70;;;;;;5051210;28;20393;-75
2022/08/17 06:03:29;;;;;;;0.20;0.20;;;26.40;33.60;;;;;;5040971;28;20107;-74
2022/08/17 06:06:04;;;;;;;0.00;0.00;;;26.20;32.70;;;;;;5046031;28;20108;-72
2022/08/17 06:08:43;;;;;;;0.00;0.00;;;26.50;34.10;;;;;;5043565;28;20037;-75
2022/08/17 06:11:28;;;;;;;0.00;0.00;;;26.60;34.60;;;;;;5053496;28;20358;-73
2022/08/17 06:14:12;;;;;;;0.75;0.30;;;26.50;36.30;;;;;;5053200;28;20051;-75
2022/08/17 06:16:46;;;;;;;0.00;0.00;;;26.60;36.40;;;;;;5048246;28;20063;-74
2022/08/17 06:19:32;;;;;;;0.43;0.32;;;26.30;36.30;;;;;;5049250;28;20360;-74
2022/08/17 06:22:01;;;;;;;0.10;0.10;;;26.40;36.20;;;;;;5045246;28;20021;-75
2022/08/17 06:24:36;;;;;;;1.73;0.68;;;26.30;35.90;;;;;;5048318;28;20035;-75
2022/08/17 06:27:20;;;;;;;0.00;0.00;;;26.40;35.50;;;;;;5045767;28;20457;-75
2022/08/17 06:29:58;;;;;;;0.55;0.55;;;26.50;35.50;;;;;;5045896;28;20075;-74
2022/08/17 06:32:25;;;;;;;0.00;0.00;;;26.50;34.40;;;;;;5041240;28;20055;-74
2022/08/17 06:34:52;;;;;;;0.00;0.00;;;26.70;33.50;;;;;;5042300;28;20053;-75
2022/08/17 06:37:31;;;;;;;1.83;1.75;;;26.80;33.90;;;;;;5043813;28;20075;-75
2022/08/17 06:40:38;;;;;;;0.00;0.00;;;27.00;33.50;;;;;;5046411;28;20033;-74
2022/08/17 06:43:26;;;;;;;0.65;0.38;;;27.00;33.80;;;;;;5042712;28;21773;-75
2022/08/17 06:46:05;;;;;;;0.00;0.00;;;26.90;34.10;;;;;;5046137;28;20036;-74
2022/08/17 06:48:42;;;;;;;0.10;0.10;;;26.90;34.00;;;;;;5048229;28;20033;-76
2022/08/17 06:51:49;;;;;;;6.38;0.88;;;26.90;34.50;;;;;;5047449;28;20037;-76
2022/08/17 06:54:37;;;;;;;1.55;0.10;;;27.00;33.40;;;;;;5044160;28;20577;-74
2022/08/17 06:57:20;;;;;;;0.00;0.00;;;26.90;32.70;;;;;;5045509;28;20527;-75
2022/08/17 07:00:00;;;;;;;0.55;0.55;;;26.60;33.50;;;;;;5043347;28;20126;-76
2022/08/17 07:03:01;;;;;;;0.55;0.55;;;26.70;35.20;;;;;;5042402;28;20117;-74
2022/08/17 07:05:33;;;;;;;6.03;1.15;;;26.80;35.30;;;;;;5045552;28;20481;-75
2022/08/17 07:08:49;;;;;;;0.00;0.00;;;26.90;34.50;;;;;;5042784;28;20040;-74
2022/08/17 07:11:36;;;;;;;0.00;0.00;;;27.20;34.50;;;;;;5030208;28;20430;-75
2022/08/17 07:14:05;;;;;;;0.93;0.15;;;27.00;34.10;;;;;;5050301;28;20033;-76
2022/08/17 07:16:40;;;;;;;0.00;0.00;;;27.20;33.90;;;;;;5042783;28;20025;-75
2022/08/17 07:19:07;;;;;;;0.50;0.30;;;27.30;34.90;;;;;;5046503;28;20370;-74
2022/08/17 07:21:40;;;;;;;0.00;0.00;;;27.50;34.20;;;;;;5043926;28;20500;-74
2022/08/17 07:24:27;;;;;;;0.32;0.32;;;27.10;34.20;;;;;;5061164;28;20393;-75
2022/08/17 07:27:04;;;;;;;1.15;0.77;;;27.20;34.70;;;;;;5047669;28;20131;-75
2022/08/17 07:29:34;;;;;;;0.00;0.00;;;27.50;33.20;;;;;;5043529;28;20390;-75
2022/08/17 07:32:00;;;;;;;0.80;0.55;;;27.70;33.20;;;;;;5047603;28;20048;-76
2022/08/17 07:34:26;;;;;;;5.82;3.30;;;27.70;32.30;;;;;;5047205;28;20038;-75
2022/08/17 07:37:04;;;;;;;1.25;0.50;;;27.60;32.70;;;;;;5047076;28;20029;-75
2022/08/17 07:39:30;;;;;;;1.35;1.02;;;27.40;32.80;;;;;;5051206;28;20025;-74
2022/08/17 07:42:04;;;;;;;1.48;0.63;;;27.10;32.30;;;;;;5074202;28;20025;-75
2022/08/17 07:44:49;;;;;;;0.00;0.00;;;27.10;33.10;;;;;;5055039;28;20104;-74
2022/08/17 07:50:00;;;;;;;0.00;0.00;;;27.20;32.30;;;;;;5050264;28;20032;-73
2022/08/17 07:52:32;;;;;;;0.10;0.10;;;27.60;31.70;;;;;;5049699;28;20127;-75
2022/08/17 07:55:19;;;;;;;0.00;0.00;;;27.40;32.00;;;;;;5046817;28;20051;-76
2022/08/17 07:57:56;;;;;;;1.25;1.15;;;27.50;32.20;;;;;;5054686;28;20041;-74
2022/08/17 08:00:23;;;;;;;0.00;0.00;;;27.20;31.00;;;;;;5052746;28;20499;-75
2022/08/17 08:03:21;;;;;;;0.00;0.00;;;27.40;32.40;;;;;;5054511;28;20418;-75
2022/08/17 08:05:58;;;;;;;0.00;0.00;;;27.60;32.70;;;;;;5048987;28;20267;-75
2022/08/17 08:08:43;;;;;;;7.97;2.47;;;27.90;33.00;;;;;;5052869;28;20025;-76
2022/08/17 08:11:14;;;;;;;0.00;0.00;;;28.30;32.50;;;;;;5047650;28;20116;-75
2022/08/17 08:13:44;;;;;;;0.35;0.35;;;28.20;33.00;;;;;;5050734;28;20103;-75
2022/08/17 08:16:18;;;;;;;0.03;0.03;;;28.20;33.20;;;;;;5048597;28;20075;-74
2022/08/17 08:18:47;;;;;;;0.10;0.10;;;27.90;32.70;;;;;;5056879;28;20032;-75
2022/08/17 08:21:20;;;;;;;2.65;1.60;;;27.90;33.00;;;;;;5050030;28;20025;-73
2022/08/17 08:23:58;;;;;;;2.05;1.95;;;27.90;31.90;;;;;;5050222;28;20099;-76
2022/08/17 08:26:30;;;;;;;0.03;0.03;;;28.00;31.30;;;;;;5053699;28;20043;-75
2022/08/17 08:29:11;;;;;;;0.00;0.00;;;27.80;31.60;;;;;;5050402;28;20369;-74
2022/08/17 08:32:00;;;;;;;0.32;0.32;;;28.00;32.00;;;;;;5051745;28;20021;-73
2022/08/17 08:35:06;;;;;;;0.00;0.00;;;27.90;32.20;;;;;;5048516;28;20029;-76
2022/08/17 08:38:04;;;;;;;0.75;0.75;;;28.00;32.00;;;;;;5054993;28;20031;-75
2022/08/17 08:40:55;;;;;;;0.00;0.00;;;28.40;31.60;;;;;;5075008;28;20496;-74
2022/08/17 08:43:28;;;;;;;0.00;0.00;;;28.50;31.50;;;;;;5070445;28;20029;-74
2022/08/17 08:46:13;;;;;;;0.00;0.00;;;28.40;31.30;;;;;;5085309;28;20041;-74
2022/08/17 08:48:51;;;;;;;0.08;0.08;;;28.40;31.40;;;;;;5073631;28;20033;-75
2022/08/17 08:51:27;;;;;;;0.10;0.10;;;28.60;31.30;;;;;;5073036;28;20491;-74
2022/08/17 08:54:17;;;;;;;0.35;0.30;;;28.70;31.10;;;;;;5069136;28;20052;-75
2022/08/17 08:56:53;;;;;;;0.00;0.00;;;28.60;31.20;;;;;;5070722;28;20045;-75
2022/08/17 08:59:58;;;;;;;0.30;0.30;;;28.60;31.60;;;;;;5068164;28;20469;-75
2022/08/17 09:02:51;;;;;;;0.00;0.00;;;28.80;30.60;;;;;;5070346;28;20017;-74
2022/08/17 09:05:35;;;;;;;0.60;0.20;;;29.10;30.50;;;;;;5069993;28;20019;-74
2022/08/17 09:08:13;;;;;;;11.07;0.85;;;29.10;30.40;;;;;;5070176;28;20419;-75
2022/08/17 09:10:58;;;;;;;0.00;0.00;;;28.80;29.80;;;;;;5073518;28;20051;-76
2022/08/17 09:13:46;;;;;;;0.00;0.00;;;29.00;29.90;;;;;;5066377;28;20017;-76
2022/08/17 09:16:28;;;;;;;0.00;0.00;;;29.10;29.10;;;;;;5072388;28;20051;-75
2022/08/17 09:19:04;;;;;;;0.08;0.08;;;29.00;29.40;;;;;;5073341;28;20323;-75
2022/08/17 09:21:54;;;;;;;0.25;0.20;;;28.90;30.00;;;;;;5078220;28;20020;-75
2022/08/17 09:24:59;;;;;;;0.28;0.28;;;29.10;29.90;;;;;;5087604;28;20103;-75
2022/08/17 09:27:49;;;;;;;0.13;0.10;;;28.90;29.90;;;;;;4985941;28;20225;-75
2022/08/17 09:30:17;;;;;;;0.00;0.00;;;28.90;29.10;;;;;;4987068;28;20042;-75
2022/08/17 09:32:48;;;;;;;0.00;0.00;;;28.90;28.80;;;;;;5050944;28;20529;-75
2022/08/17 09:35:23;;;;;;;0.00;0.00;;;29.00;28.50;;;;;;5088106;28;20024;-75
2022/08/17 09:38:21;;;;;;;0.00;0.00;;;29.00;28.80;;;;;;5085605;28;20085;-76
2022/08/17 09:41:14;;;;;;;0.00;0.00;;;29.10;28.50;;;;;;5080718;28;20487;-74
2022/08/17 09:43:43;;;;;;;0.00;0.00;;;29.00;28.90;;;;;;5084489;28;20032;-78
2022/08/17 09:46:27;;;;;;;0.00;0.00;;;28.90;29.30;;;;;;5087081;28;20107;-77
2022/08/17 09:49:08;;;;;;;0.00;0.00;;;29.00;29.10;;;;;;5085031;28;20061;-75
2022/08/17 09:51:57;;;;;;;6.18;3.00;;;28.80;29.50;;;;;;5092671;28;20032;-76
2022/08/17 09:54:41;;;;;;;0.00;0.00;;;28.60;29.40;;;;;;5093339;28;20066;-73
2022/08/17 09:57:23;;;;;;;0.00;0.00;;;28.60;29.00;;;;;;5086047;28;20071;-74
2022/08/17 10:00:12;;;;;;;0.10;0.10;;;28.70;27.70;;;;;;5084357;28;20456;-73
2022/08/17 10:03:15;;;;;;;0.28;0.10;;;28.90;29.00;;;;;;5089730;28;20118;-74
2022/08/17 10:05:59;;;;;;;0.00;0.00;;;28.70;29.10;;;;;;5088740;28;20112;-74
2022/08/17 10:08:52;;;;;;;0.25;0.25;;;28.50;29.60;;;;;;5091870;28;20016;-74
2022/08/17 10:14:38;;;;;;;0.00;0.00;;;28.50;28.80;;;;;;5080914;28;20031;-75
2022/08/17 10:17:32;;;;;;;2.20;0.68;;;28.70;28.30;;;;;;5091599;28;20541;-74
2022/08/17 10:20:16;;;;;;;0.28;0.28;;;28.90;27.90;;;;;;5043324;28;20498;-74
2022/08/17 10:26:11;;;;;;;0.00;0.00;;;28.60;28.30;;;;;;5089309;28;20063;-75
2022/08/17 10:29:01;;;;;;;0.40;0.22;;;28.70;27.80;;;;;;5086977;28;20369;-73
2022/08/17 10:31:32;;;;;;;0.00;0.00;;;28.70;29.20;;;;;;5092162;28;20069;-74
2022/08/17 10:34:17;;;;;;;0.00;0.00;;;28.60;29.10;;;;;;5090352;28;20039;-75
2022/08/17 10:36:51;;;;;;;0.00;0.00;;;28.50;28.80;;;;;;5087630;28;20028;-74
2022/08/17 10:39:41;;;;;;;0.00;0.00;;;28.60;28.80;;;;;;5090406;28;20103;-74
2022/08/17 10:42:34;;;;;;;0.00;0.00;;;28.50;28.30;;;;;;5087901;28;20020;-73
2022/08/17 10:45:35;;;;;;;0.60;0.20;;;28.70;28.70;;;;;;5082167;28;21029;-74
2022/08/17 10:48:29;;;;;;;0.00;0.00;;;28.50;28.60;;;;;;5084463;28;20132;-75
2022/08/17 10:50:58;;;;;;;0.00;0.00;;;28.50;28.20;;;;;;5087333;28;20039;-73
2022/08/17 10:53:37;;;;;;;0.00;0.00;;;28.40;28.30;;;;;;5074127;28;20173;-74
2022/08/17 10:56:21;;;;;;;0.20;0.00;;;28.40;28.50;;;;;;5064094;28;20523;-75
2022/08/17 10:58:56;;;;;;;0.03;0.03;;;28.30;29.00;;;;;;5086571;28;20074;-75
2022/08/17 11:01:37;;;;;;;0.00;0.00;;;28.30;29.60;;;;;;5083606;28;20698;-74
2022/08/17 11:04:24;;;;;;;0.00;0.00;;;28.30;29.20;;;;;;5082800;28;20111;-73
2022/08/17 11:07:05;;;;;;;0.00;0.00;;;28.30;29.40;;;;;;5083248;28;20472;-74
2022/08/17 11:09:53;;;;;;;0.00;0.00;;;28.40;29.00;;;;;;5089157;28;20032;-73
2022/08/17 11:13:00;;;;;;;0.00;0.00;;;28.60;28.90;;;;;;5087016;28;20030;-73
2022/08/17 11:15:44;;;;;;;0.20;0.20;;;28.50;28.80;;;;;;5085981;28;20028;-74
2022/08/17 11:18:22;;;;;;;0.00;0.00;;;28.50;29.00;;;;;;5087753;28;20039;-73
2022/08/17 11:21:06;;;;;;;0.00;0.00;;;28.30;28.80;;;;;;5093525;28;20028;-74
2022/08/17 11:24:15;;;;;;;0.00;0.00;;;28.40;29.50;;;;;;5085520;28;20371;-73
2022/08/17 11:26:47;;;;;;;0.40;0.30;;;28.40;29.40;;;;;;5091998;28;20035;-73
2022/08/17 11:29:28;;;;;;;0.00;0.00;;;28.20;29.70;;;;;;5094874;28;20028;-74
2022/08/17 11:32:32;;;;;;;0.75;0.75;;;28.10;29.60;;;;;;5093181;28;20115;-74
2022/08/17 11:35:37;;;;;;;0.00;0.00;;;28.10;29.70;;;;;;5089247;28;20469;-72
2022/08/17 11:38:18;;;;;;;0.00;0.00;;;28.20;30.00;;;;;;5096186;28;20063;-74
2022/08/17 11:41:11;;;;;;;0.00;0.00;;;28.10;30.20;;;;;;5078154;28;20028;-73
2022/08/17 11:44:16;;;;;;;0.00;0.00;;;28.10;30.20;;;;;;5090512;28;20414;-74
2022/08/17 11:52:44;;;;;;;0.00;0.00;;;28.50;29.50;;;;;;5091234;28;20086;-73
2022/08/17 11:55:36;;;;;;;0.00;0.00;;;28.50;29.60;;;;;;5090864;28;20028;-74
2022/08/17 11:58:36;;;;;;;0.00;0.00;;;28.50;28.80;;;;;;5068062;28;20485;-75
2022/08/17 12:01:32;;;;;;;0.00;0.00;;;28.40;29.20;;;;;;5070995;28;20120;-72
2022/08/17 12:04:28;;;;;;;0.00;0.00;;;28.40;29.60;;;;;;5071754;28;20068;-74
2022/08/17 12:07:12;;;;;;;0.00;0.00;;;28.40;30.00;;;;;;5070067;28;20024;-74
2022/08/17 12:09:44;;;;;;;0.25;0.25;;;28.40;29.80;;;;;;5071580;28;20081;-73
2022/08/17 12:12:16;;;;;;;0.00;0.00;;;28.30;30.00;;;;;;5069934;28;20187;-74
2022/08/17 12:14:50;;;;;;;0.00;0.00;;;28.30;30.10;;;;;;5064020;28;20048;-73
2022/08/17 12:17:22;;;;;;;0.00;0.00;;;28.30;30.20;;;;;;5067118;28;20029;-73
2022/08/17 12:19:48;;;;;;;0.00;0.00;;;28.20;29.90;;;;;;5068312;28;20071;-73
2022/08/17 12:22:32;;;;;;;0.00;0.00;;;28.30;29.80;;;;;;5066873;28;20063;-74
2022/08/17 12:25:21;;;;;;;0.00;0.00;;;28.30;29.20;;;;;;5072655;28;20021;-74
2022/08/17 12:27:50;;;;;;;0.00;0.00;;;28.20;29.70;;;;;;5074715;28;20210;-74
2022/08/17 12:30:19;;;;;;;0.00;0.00;;;28.00;29.80;;;;;;5076026;28;20028;-74
2022/08/17 12:32:47;;;;;;;0.00;0.00;;;27.80;30.30;;;;;;5073759;28;20472;-73
2022/08/17 12:35:33;;;;;;;0.00;0.00;;;27.80;30.30;;;;;;5072250;28;20363;-73
2022/08/17 12:38:00;;;;;;;0.00;0.00;;;27.90;30.10;;;;;;5075806;28;20055;-73
2022/08/17 12:40:30;;;;;;;0.00;0.00;;;27.90;30.70;;;;;;5074114;28;20464;-73
2022/08/17 12:43:21;;;;;;;0.00;0.00;;;27.80;29.80;;;;;;5065212;28;20055;-74
2022/08/17 12:45:58;;;;;;;0.40;0.40;;;27.90;29.80;;;;;;5063498;28;20031;-74
2022/08/17 12:48:27;;;;;;;0.00;0.00;;;27.90;29.60;;;;;;5075438;28;20031;-74
2022/08/17 12:51:02;;;;;;;0.00;0.00;;;27.80;29.70;;;;;;5066811;28;20028;-73
2022/08/17 12:53:33;;;;;;;0.00;0.00;;;27.80;29.60;;;;;;5073958;28;20361;-74
2022/08/17 12:56:06;;;;;;;0.00;0.00;;;27.70;29.70;;;;;;5078406;28;20039;-74
2022/08/17 12:58:42;;;;;;;0.00;0.00;;;27.60;29.60;;;;;;5099581;28;20016;-74
2022/08/17 13:01:15;;;;;;;0.00;0.00;;;27.50;29.80;;;;;;5113674;27;20447;-74
2022/08/17 13:03:48;;;;;;;0.00;0.00;;;27.50;29.40;;;;;;5109537;27;20030;-74
2022/08/17 13:06:35;;;;;;;0.00;0.00;;;27.60;29.30;;;;;;5110094;28;20564;-74
2022/08/17 13:09:31;;;;;;;0.00;0.00;;;27.60;29.20;;;;;;5111576;28;20046;-74
2022/08/17 13:11:59;;;;;;;0.00;0.00;;;27.60;29.50;;;;;;5088530;28;20157;-74
2022/08/17 13:14:28;;;;;;;0.45;0.45;;;27.60;29.80;;;;;;5113081;28;20353;-75
2022/08/17 13:16:59;;;;;;;0.00;0.00;;;27.50;30.00;;;;;;5108534;28;20120;-74
2022/08/17 13:19:28;;;;;;;0.00;0.00;;;27.60;29.80;;;;;;5113541;28;20026;-74
2022/08/17 13:21:58;;;;;;;0.00;0.00;;;27.60;29.60;;;;;;5110791;28;20089;-73
2022/08/17 13:24:32;;;;;;;0.00;0.00;;;27.50;29.70;;;;;;5107447;27;20028;-73
2022/08/17 13:27:01;;;;;;;0.00;0.00;;;27.50;29.90;;;;;;5112136;28;20031;-72
2022/08/17 13:29:37;;;;;;;0.77;0.77;;;27.30;30.50;;;;;;5112912;28;20028;-73
2022/08/17 13:32:06;;;;;;;0.00;0.00;;;27.20;31.10;;;;;;5110822;27;20075;-73
2022/08/17 13:35:01;;;;;;;0.00;0.00;;;27.20;30.70;;;;;;5104295;28;20428;-72
2022/08/17 13:37:31;;;;;;;0.00;0.00;;;27.20;30.60;;;;;;5103704;28;20035;-73
2022/08/17 13:40:08;;;;;;;0.00;0.00;;;27.30;31.70;;;;;;5110243;28;20027;-73
2022/08/17 13:42:47;;;;;;;0.00;0.00;;;27.10;31.50;;;;;;5112005;28;20019;-72
2022/08/17 13:45:29;;;;;;;0.10;0.10;;;27.10;31.30;;;;;;5111236;28;20471;-73
2022/08/17 13:48:20;;;;;;;0.00;0.00;;;27.10;31.40;;;;;;5109999;28;20098;-72
2022/08/17 13:51:06;;;;;;;0.00;0.00;;;27.00;31.60;;;;;;5111833;28;20034;-72
2022/08/17 13:53:52;;;;;;;0.00;0.00;;;27.00;31.90;;;;;;5109863;28;20081;-73
2022/08/17 13:56:38;;;;;;;0.00;0.00;;;26.90;32.40;;;;;;5109291;28;20445;-73
2022/08/17 13:59:06;;;;;;;0.55;0.55;;;26.80;32.10;;;;;;5109576;28;20024;-73
2022/08/17 14:01:40;;;;;;;0.00;0.00;;;26.70;32.20;;;;;;5108392;28;20020;-74
2022/08/17 14:04:15;;;;;;;0.00;0.00;;;26.60;33.30;;;;;;5105215;27;20028;-73